sensor_id;sensor_type;location;lat;lon;timestamp;pressure;altitude;pressure_sealevel;temperature;humidity
35577;BME280;21680;52.400;16.920;2023-01-25T00:02:02;102917.83;;;0.62;89.32
35577;BME280;21680;52.400;16.920;2023-01-25T00:04:27;102912.22;;;0.62;89.30
35577;BME280;21680;52.400;16.920;2023-01-25T00:06:53;102913.29;;;0.63;89.13
35577;BME280;21680;52.400;16.920;2023-01-25T00:09:20;102914.73;;;0.64;89.50
35577;BME280;21680;52.400;16.920;2023-01-25T00:11:45;102914.04;;;0.64;89.29
35577;BME280;21680;52.400;16.920;2023-01-25T00:14:12;102916.31;;;0.64;89.38
35577;BME280;21680;52.400;16.920;2023-01-25T00:16:38;102922.46;;;0.64;89.24
35577;BME280;21680;52.400;16.920;2023-01-25T00:19:04;102920.03;;;0.65;89.50
35577;BME280;21680;52.400;16.920;2023-01-25T00:21:29;102917.71;;;0.63;89.21
35577;BME280;21680;52.400;16.920;2023-01-25T00:23:55;102918.25;;;0.64;89.29
35577;BME280;21680;52.400;16.920;2023-01-25T00:26:21;102918.15;;;0.67;89.37
35577;BME280;21680;52.400;16.920;2023-01-25T00:28:53;102920.48;;;0.68;89.43
35577;BME280;21680;52.400;16.920;2023-01-25T00:31:26;102920.09;;;0.67;89.49
35577;BME280;21680;52.400;16.920;2023-01-25T00:34:06;102917.91;;;0.64;89.28
35577;BME280;21680;52.400;16.920;2023-01-25T00:39:04;102911.75;;;0.64;89.47
35577;BME280;21680;52.400;16.920;2023-01-25T00:41:30;102920.16;;;0.63;89.32
35577;BME280;21680;52.400;16.920;2023-01-25T00:43:55;102919.98;;;0.63;89.41
35577;BME280;21680;52.400;16.920;2023-01-25T00:46:21;102919.95;;;0.62;89.36
35577;BME280;21680;52.400;16.920;2023-01-25T00:48:47;102921.87;;;0.62;89.48
35577;BME280;21680;52.400;16.920;2023-01-25T00:51:12;102922.10;;;0.63;89.57
35577;BME280;21680;52.400;16.920;2023-01-25T00:53:38;102926.70;;;0.64;89.44
35577;BME280;21680;52.400;16.920;2023-01-25T00:56:03;102931.20;;;0.62;89.55
35577;BME280;21680;52.400;16.920;2023-01-25T00:58:29;102929.69;;;0.64;89.63
35577;BME280;21680;52.400;16.920;2023-01-25T01:00:55;102920.60;;;0.66;89.40
35577;BME280;21680;52.400;16.920;2023-01-25T01:03:21;102919.34;;;0.65;89.54
35577;BME280;21680;52.400;16.920;2023-01-25T01:05:47;102918.42;;;0.64;89.65
35577;BME280;21680;52.400;16.920;2023-01-25T01:08:13;102921.89;;;0.57;89.42
35577;BME280;21680;52.400;16.920;2023-01-25T01:10:39;102920.27;;;0.51;89.44
35577;BME280;21680;52.400;16.920;2023-01-25T01:13:05;102919.88;;;0.50;89.54
35577;BME280;21680;52.400;16.920;2023-01-25T01:15:30;102918.84;;;0.51;89.69
35577;BME280;21680;52.400;16.920;2023-01-25T01:17:56;102916.02;;;0.50;89.52
35577;BME280;21680;52.400;16.920;2023-01-25T01:20:22;102913.41;;;0.46;89.47
35577;BME280;21680;52.400;16.920;2023-01-25T01:22:47;102911.30;;;0.41;89.27
35577;BME280;21680;52.400;16.920;2023-01-25T01:25:12;102914.90;;;0.38;89.44
35577;BME280;21680;52.400;16.920;2023-01-25T01:27:38;102916.80;;;0.38;89.71
35577;BME280;21680;52.400;16.920;2023-01-25T01:30:04;102917.14;;;0.37;89.48
35577;BME280;21680;52.400;16.920;2023-01-25T01:32:30;102916.95;;;0.36;89.67
35577;BME280;21680;52.400;16.920;2023-01-25T01:34:55;102913.69;;;0.34;89.53
35577;BME280;21680;52.400;16.920;2023-01-25T01:37:20;102913.97;;;0.26;89.34
35577;BME280;21680;52.400;16.920;2023-01-25T01:39:45;102914.46;;;0.20;89.38
35577;BME280;21680;52.400;16.920;2023-01-25T01:42:11;102916.00;;;0.19;89.52
35577;BME280;21680;52.400;16.920;2023-01-25T01:44:54;102915.92;;;0.17;89.44
35577;BME280;21680;52.400;16.920;2023-01-25T01:47:29;102914.41;;;0.14;89.35
35577;BME280;21680;52.400;16.920;2023-01-25T01:50:17;102910.05;;;0.15;89.58
35577;BME280;21680;52.400;16.920;2023-01-25T01:52:44;102910.97;;;0.17;89.64
35577;BME280;21680;52.400;16.920;2023-01-25T01:55:13;102904.73;;;0.09;89.43
35577;BME280;21680;52.400;16.920;2023-01-25T01:57:45;102902.15;;;0.06;89.61
35577;BME280;21680;52.400;16.920;2023-01-25T02:00:22;102900.01;;;0.10;89.73
35577;BME280;21680;52.400;16.920;2023-01-25T02:02:50;102898.34;;;0.12;89.87
35577;BME280;21680;52.400;16.920;2023-01-25T02:05:23;102897.80;;;0.12;89.79
35577;BME280;21680;52.400;16.920;2023-01-25T02:07:51;102901.31;;;0.12;89.81
35577;BME280;21680;52.400;16.920;2023-01-25T02:10:19;102893.83;;;0.14;89.87
35577;BME280;21680;52.400;16.920;2023-01-25T02:12:46;102896.15;;;0.15;89.95
35577;BME280;21680;52.400;16.920;2023-01-25T02:15:12;102886.98;;;0.14;89.57
35577;BME280;21680;52.400;16.920;2023-01-25T02:17:39;102879.08;;;0.14;89.96
35577;BME280;21680;52.400;16.920;2023-01-25T02:22:44;102875.09;;;0.16;89.94
35577;BME280;21680;52.400;16.920;2023-01-25T02:25:12;102875.15;;;0.13;89.93
35577;BME280;21680;52.400;16.920;2023-01-25T02:27:47;102873.10;;;0.09;89.98
35577;BME280;21680;52.400;16.920;2023-01-25T02:30:14;102870.34;;;0.06;89.82
35577;BME280;21680;52.400;16.920;2023-01-25T02:32:40;102866.16;;;0.07;89.99
35577;BME280;21680;52.400;16.920;2023-01-25T02:35:05;102870.92;;;0.07;90.00
35577;BME280;21680;52.400;16.920;2023-01-25T02:37:31;102874.11;;;0.08;90.08
35577;BME280;21680;52.400;16.920;2023-01-25T02:39:56;102870.11;;;0.04;89.85
35577;BME280;21680;52.400;16.920;2023-01-25T02:42:22;102867.52;;;-0.00;89.77
35577;BME280;21680;52.400;16.920;2023-01-25T02:44:48;102867.71;;;-0.05;89.78
35577;BME280;21680;52.400;16.920;2023-01-25T02:47:14;102865.69;;;-0.07;89.80
35577;BME280;21680;52.400;16.920;2023-01-25T02:49:39;102862.73;;;-0.07;89.94
35577;BME280;21680;52.400;16.920;2023-01-25T02:52:05;102855.87;;;-0.07;90.01
35577;BME280;21680;52.400;16.920;2023-01-25T02:54:30;102854.15;;;-0.11;89.94
35577;BME280;21680;52.400;16.920;2023-01-25T02:56:56;102848.52;;;-0.11;89.97
35577;BME280;21680;52.400;16.920;2023-01-25T02:59:21;102849.09;;;-0.14;90.03
35577;BME280;21680;52.400;16.920;2023-01-25T03:01:47;102846.18;;;-0.12;90.22
35577;BME280;21680;52.400;16.920;2023-01-25T03:04:13;102841.10;;;-0.12;90.20
35577;BME280;21680;52.400;16.920;2023-01-25T03:06:39;102836.33;;;-0.17;89.87
35577;BME280;21680;52.400;16.920;2023-01-25T03:09:08;102830.98;;;-0.20;90.15
35577;BME280;21680;52.400;16.920;2023-01-25T03:11:35;102824.63;;;-0.20;89.94
35577;BME280;21680;52.400;16.920;2023-01-25T03:14:00;102817.05;;;-0.21;90.32
35577;BME280;21680;52.400;16.920;2023-01-25T03:16:25;102823.41;;;-0.20;90.41
35577;BME280;21680;52.400;16.920;2023-01-25T03:18:52;102821.52;;;-0.18;90.20
35577;BME280;21680;52.400;16.920;2023-01-25T03:21:19;102817.27;;;-0.20;90.35
35577;BME280;21680;52.400;16.920;2023-01-25T03:23:46;102811.39;;;-0.27;90.17
35577;BME280;21680;52.400;16.920;2023-01-25T03:26:18;102805.59;;;-0.27;90.26
35577;BME280;21680;52.400;16.920;2023-01-25T03:28:44;102801.10;;;-0.25;90.24
35577;BME280;21680;52.400;16.920;2023-01-25T03:31:12;102804.84;;;-0.24;90.44
35577;BME280;21680;52.400;16.920;2023-01-25T03:33:38;102802.63;;;-0.21;90.44
35577;BME280;21680;52.400;16.920;2023-01-25T03:36:04;102799.45;;;-0.22;90.33
35577;BME280;21680;52.400;16.920;2023-01-25T03:38:30;102794.77;;;-0.25;90.25
35577;BME280;21680;52.400;16.920;2023-01-25T03:40:56;102792.84;;;-0.30;90.37
35577;BME280;21680;52.400;16.920;2023-01-25T03:43:21;102789.23;;;-0.28;90.44
35577;BME280;21680;52.400;16.920;2023-01-25T03:45:58;102788.96;;;-0.25;90.46
35577;BME280;21680;52.400;16.920;2023-01-25T03:48:24;102785.61;;;-0.26;90.56
35577;BME280;21680;52.400;16.920;2023-01-25T03:50:57;102780.14;;;-0.26;90.40
35577;BME280;21680;52.400;16.920;2023-01-25T03:53:25;102776.08;;;-0.32;90.28
35577;BME280;21680;52.400;16.920;2023-01-25T03:55:55;102775.73;;;-0.37;90.33
35577;BME280;21680;52.400;16.920;2023-01-25T03:58:21;102768.67;;;-0.38;90.33
35577;BME280;21680;52.400;16.920;2023-01-25T04:00:47;102767.45;;;-0.38;90.32
35577;BME280;21680;52.400;16.920;2023-01-25T04:03:12;102764.17;;;-0.36;90.62
35577;BME280;21680;52.400;16.920;2023-01-25T04:05:37;102765.73;;;-0.32;90.74
35577;BME280;21680;52.400;16.920;2023-01-25T04:08:03;102764.23;;;-0.29;90.64
35577;BME280;21680;52.400;16.920;2023-01-25T04:10:28;102761.81;;;-0.28;90.72
35577;BME280;21680;52.400;16.920;2023-01-25T04:12:53;102757.89;;;-0.29;90.59
35577;BME280;21680;52.400;16.920;2023-01-25T04:15:18;102758.25;;;-0.35;90.44
35577;BME280;21680;52.400;16.920;2023-01-25T04:17:44;102759.76;;;-0.37;90.58
35577;BME280;21680;52.400;16.920;2023-01-25T04:20:10;102757.43;;;-0.38;90.69
35577;BME280;21680;52.400;16.920;2023-01-25T04:22:35;102754.52;;;-0.36;90.86
35577;BME280;21680;52.400;16.920;2023-01-25T04:25:00;102750.52;;;-0.35;90.78
35577;BME280;21680;52.400;16.920;2023-01-25T04:27:26;102746.05;;;-0.31;90.82
35577;BME280;21680;52.400;16.920;2023-01-25T04:29:51;102738.73;;;-0.30;91.00
35577;BME280;21680;52.400;16.920;2023-01-25T04:32:16;102731.65;;;-0.31;90.58
35577;BME280;21680;52.400;16.920;2023-01-25T04:34:41;102730.79;;;-0.36;90.69
35577;BME280;21680;52.400;16.920;2023-01-25T04:37:07;102728.81;;;-0.38;90.85
35577;BME280;21680;52.400;16.920;2023-01-25T04:39:32;102725.66;;;-0.37;90.82
35577;BME280;21680;52.400;16.920;2023-01-25T04:41:57;102725.25;;;-0.39;91.00
35577;BME280;21680;52.400;16.920;2023-01-25T04:44:22;102726.38;;;-0.42;90.78
35577;BME280;21680;52.400;16.920;2023-01-25T04:46:48;102724.92;;;-0.43;90.83
35577;BME280;21680;52.400;16.920;2023-01-25T04:49:13;102721.82;;;-0.42;90.96
35577;BME280;21680;52.400;16.920;2023-01-25T04:51:38;102721.23;;;-0.39;91.03
35577;BME280;21680;52.400;16.920;2023-01-25T04:54:04;102721.77;;;-0.38;91.00
35577;BME280;21680;52.400;16.920;2023-01-25T04:56:29;102723.58;;;-0.42;90.93
35577;BME280;21680;52.400;16.920;2023-01-25T04:58:54;102723.58;;;-0.42;90.99
35577;BME280;21680;52.400;16.920;2023-01-25T05:01:20;102721.09;;;-0.43;90.84
35577;BME280;21680;52.400;16.920;2023-01-25T05:03:45;102718.63;;;-0.43;91.00
35577;BME280;21680;52.400;16.920;2023-01-25T05:06:10;102720.09;;;-0.41;91.15
35577;BME280;21680;52.400;16.920;2023-01-25T05:08:36;102713.26;;;-0.40;91.18
35577;BME280;21680;52.400;16.920;2023-01-25T05:11:01;102714.17;;;-0.40;91.14
35577;BME280;21680;52.400;16.920;2023-01-25T05:13:26;102712.27;;;-0.39;91.20
35577;BME280;21680;52.400;16.920;2023-01-25T05:15:52;102710.66;;;-0.39;91.02
35577;BME280;21680;52.400;16.920;2023-01-25T05:18:17;102707.50;;;-0.39;91.09
35577;BME280;21680;52.400;16.920;2023-01-25T05:20:42;102705.27;;;-0.38;91.37
35577;BME280;21680;52.400;16.920;2023-01-25T05:23:07;102702.98;;;-0.38;91.27
35577;BME280;21680;52.400;16.920;2023-01-25T05:25:33;102701.25;;;-0.37;91.30
35577;BME280;21680;52.400;16.920;2023-01-25T05:28:17;102699.41;;;-0.40;91.08
35577;BME280;21680;52.400;16.920;2023-01-25T05:30:42;102696.19;;;-0.42;91.14
35577;BME280;21680;52.400;16.920;2023-01-25T05:33:07;102695.20;;;-0.45;91.10
35577;BME280;21680;52.400;16.920;2023-01-25T05:35:32;102695.89;;;-0.45;91.13
35577;BME280;21680;52.400;16.920;2023-01-25T05:37:58;102698.39;;;-0.44;91.22
35577;BME280;21680;52.400;16.920;2023-01-25T05:40:25;102701.81;;;-0.41;91.08
35577;BME280;21680;52.400;16.920;2023-01-25T05:42:58;102698.02;;;-0.39;91.18
35577;BME280;21680;52.400;16.920;2023-01-25T05:45:26;102698.37;;;-0.40;91.11
35577;BME280;21680;52.400;16.920;2023-01-25T05:47:55;102693.02;;;-0.42;91.13
35577;BME280;21680;52.400;16.920;2023-01-25T05:50:22;102691.05;;;-0.43;91.05
35577;BME280;21680;52.400;16.920;2023-01-25T05:52:48;102690.89;;;-0.42;91.16
35577;BME280;21680;52.400;16.920;2023-01-25T05:55:14;102688.42;;;-0.43;91.23
35577;BME280;21680;52.400;16.920;2023-01-25T05:57:39;102686.85;;;-0.42;91.33
35577;BME280;21680;52.400;16.920;2023-01-25T06:00:06;102694.44;;;-0.41;91.36
35577;BME280;21680;52.400;16.920;2023-01-25T06:02:32;102694.02;;;-0.39;91.31
35577;BME280;21680;52.400;16.920;2023-01-25T06:04:57;102693.13;;;-0.38;91.26
35577;BME280;21680;52.400;16.920;2023-01-25T06:07:23;102694.00;;;-0.39;91.35
35577;BME280;21680;52.400;16.920;2023-01-25T06:09:48;102691.58;;;-0.38;91.34
35577;BME280;21680;52.400;16.920;2023-01-25T06:12:14;102688.42;;;-0.37;91.30
35577;BME280;21680;52.400;16.920;2023-01-25T06:14:40;102691.41;;;-0.38;91.24
35577;BME280;21680;52.400;16.920;2023-01-25T06:17:06;102690.42;;;-0.36;91.40
35577;BME280;21680;52.400;16.920;2023-01-25T06:19:31;102689.94;;;-0.34;91.42
35577;BME280;21680;52.400;16.920;2023-01-25T06:21:57;102686.33;;;-0.37;91.35
35577;BME280;21680;52.400;16.920;2023-01-25T06:24:22;102686.53;;;-0.36;91.42
35577;BME280;21680;52.400;16.920;2023-01-25T06:26:47;102684.98;;;-0.35;91.31
35577;BME280;21680;52.400;16.920;2023-01-25T06:29:12;102683.21;;;-0.36;91.44
35577;BME280;21680;52.400;16.920;2023-01-25T06:31:38;102686.18;;;-0.36;91.52
35577;BME280;21680;52.400;16.920;2023-01-25T06:34:03;102689.77;;;-0.34;91.33
35577;BME280;21680;52.400;16.920;2023-01-25T06:36:31;102689.79;;;-0.33;91.31
35577;BME280;21680;52.400;16.920;2023-01-25T06:38:56;102682.23;;;-0.34;91.39
35577;BME280;21680;52.400;16.920;2023-01-25T06:41:22;102685.29;;;-0.31;91.50
35577;BME280;21680;52.400;16.920;2023-01-25T06:43:50;102684.66;;;-0.29;91.43
35577;BME280;21680;52.400;16.920;2023-01-25T06:46:17;102682.30;;;-0.26;91.54
35577;BME280;21680;52.400;16.920;2023-01-25T06:48:42;102683.06;;;-0.24;91.41
35577;BME280;21680;52.400;16.920;2023-01-25T06:51:10;102682.95;;;-0.27;91.30
35577;BME280;21680;52.400;16.920;2023-01-25T06:53:38;102685.17;;;-0.29;91.15
35577;BME280;21680;52.400;16.920;2023-01-25T06:58:31;102685.22;;;-0.34;91.36
35577;BME280;21680;52.400;16.920;2023-01-25T07:01:02;102686.95;;;-0.34;91.35
35577;BME280;21680;52.400;16.920;2023-01-25T07:03:29;102686.06;;;-0.35;91.36
35577;BME280;21680;52.400;16.920;2023-01-25T07:05:58;102682.70;;;-0.35;91.26
35577;BME280;21680;52.400;16.920;2023-01-25T07:08:24;102681.13;;;-0.35;91.42
35577;BME280;21680;52.400;16.920;2023-01-25T07:10:57;102678.31;;;-0.35;91.39
35577;BME280;21680;52.400;16.920;2023-01-25T07:13:23;102671.79;;;-0.36;91.29
35577;BME280;21680;52.400;16.920;2023-01-25T07:15:54;102667.77;;;-0.35;91.34
35577;BME280;21680;52.400;16.920;2023-01-25T07:18:19;102665.20;;;-0.33;91.46
35577;BME280;21680;52.400;16.920;2023-01-25T07:20:45;102662.67;;;-0.30;91.47
35577;BME280;21680;52.400;16.920;2023-01-25T07:23:10;102666.54;;;-0.30;91.52
35577;BME280;21680;52.400;16.920;2023-01-25T07:25:35;102666.00;;;-0.30;91.42
35577;BME280;21680;52.400;16.920;2023-01-25T07:28:00;102664.20;;;-0.31;91.37
35577;BME280;21680;52.400;16.920;2023-01-25T07:30:27;102665.75;;;-0.32;91.25
35577;BME280;21680;52.400;16.920;2023-01-25T07:32:53;102668.25;;;-0.31;91.47
35577;BME280;21680;52.400;16.920;2023-01-25T07:35:19;102660.34;;;-0.31;91.48
35577;BME280;21680;52.400;16.920;2023-01-25T07:37:45;102657.17;;;-0.31;91.57
35577;BME280;21680;52.400;16.920;2023-01-25T07:40:11;102654.07;;;-0.30;91.44
35577;BME280;21680;52.400;16.920;2023-01-25T07:42:37;102652.93;;;-0.27;91.45
35577;BME280;21680;52.400;16.920;2023-01-25T07:45:03;102646.72;;;-0.29;91.49
35577;BME280;21680;52.400;16.920;2023-01-25T07:47:28;102643.81;;;-0.32;91.41
35577;BME280;21680;52.400;16.920;2023-01-25T07:49:53;102646.56;;;-0.34;91.35
35577;BME280;21680;52.400;16.920;2023-01-25T07:52:19;102647.04;;;-0.36;91.38
35577;BME280;21680;52.400;16.920;2023-01-25T07:54:44;102642.98;;;-0.36;91.43
35577;BME280;21680;52.400;16.920;2023-01-25T07:57:11;102635.80;;;-0.35;91.46
35577;BME280;21680;52.400;16.920;2023-01-25T07:59:36;102633.81;;;-0.37;91.40
35577;BME280;21680;52.400;16.920;2023-01-25T08:02:01;102626.35;;;-0.35;91.40
35577;BME280;21680;52.400;16.920;2023-01-25T08:04:27;102623.02;;;-0.34;91.49
35577;BME280;21680;52.400;16.920;2023-01-25T08:06:52;102623.02;;;-0.34;91.43
35577;BME280;21680;52.400;16.920;2023-01-25T08:09:17;102614.68;;;-0.31;91.50
35577;BME280;21680;52.400;16.920;2023-01-25T08:11:45;102609.70;;;-0.27;91.60
35577;BME280;21680;52.400;16.920;2023-01-25T08:14:13;102614.16;;;-0.25;91.59
35577;BME280;21680;52.400;16.920;2023-01-25T08:16:38;102619.14;;;-0.23;91.61
35577;BME280;21680;52.400;16.920;2023-01-25T08:19:03;102624.76;;;-0.24;91.40
35577;BME280;21680;52.400;16.920;2023-01-25T08:21:31;102622.35;;;-0.27;91.31
35577;BME280;21680;52.400;16.920;2023-01-25T08:23:59;102619.90;;;-0.33;91.22
35577;BME280;21680;52.400;16.920;2023-01-25T08:26:24;102618.90;;;-0.31;91.69
35577;BME280;21680;52.400;16.920;2023-01-25T08:28:51;102612.65;;;-0.28;91.52
35577;BME280;21680;52.400;16.920;2023-01-25T08:31:23;102613.20;;;-0.28;91.52
35577;BME280;21680;52.400;16.920;2023-01-25T08:33:49;102613.81;;;-0.25;91.74
35577;BME280;21680;52.400;16.920;2023-01-25T08:36:16;102608.52;;;-0.26;91.54
35577;BME280;21680;52.400;16.920;2023-01-25T08:38:43;102605.39;;;-0.30;91.38
35577;BME280;21680;52.400;16.920;2023-01-25T08:41:12;102600.92;;;-0.33;91.37
35577;BME280;21680;52.400;16.920;2023-01-25T08:43:38;102598.27;;;-0.34;91.51
35577;BME280;21680;52.400;16.920;2023-01-25T08:46:04;102601.51;;;-0.31;91.49
35577;BME280;21680;52.400;16.920;2023-01-25T08:48:30;102604.67;;;-0.30;91.31
35577;BME280;21680;52.400;16.920;2023-01-25T08:50:55;102595.33;;;-0.32;91.50
35577;BME280;21680;52.400;16.920;2023-01-25T08:53:21;102597.54;;;-0.28;91.60
35577;BME280;21680;52.400;16.920;2023-01-25T08:55:47;102592.97;;;-0.29;91.47
35577;BME280;21680;52.400;16.920;2023-01-25T08:58:14;102586.19;;;-0.32;91.39
35577;BME280;21680;52.400;16.920;2023-01-25T09:00:43;102583.83;;;-0.35;91.39
35577;BME280;21680;52.400;16.920;2023-01-25T09:03:09;102575.64;;;-0.32;91.49
35577;BME280;21680;52.400;16.920;2023-01-25T09:05:37;102571.82;;;-0.31;91.74
35577;BME280;21680;52.400;16.920;2023-01-25T09:08:04;102562.77;;;-0.28;91.64
35577;BME280;21680;52.400;16.920;2023-01-25T09:10:30;102560.68;;;-0.22;91.66
35577;BME280;21680;52.400;16.920;2023-01-25T09:12:56;102564.09;;;-0.20;91.75
35577;BME280;21680;52.400;16.920;2023-01-25T09:15:22;102564.62;;;-0.20;91.68
35577;BME280;21680;52.400;16.920;2023-01-25T09:17:51;102567.93;;;-0.21;91.58
35577;BME280;21680;52.400;16.920;2023-01-25T09:20:17;102566.03;;;-0.20;91.51
35577;BME280;21680;52.400;16.920;2023-01-25T09:22:42;102568.98;;;-0.21;91.64
35577;BME280;21680;52.400;16.920;2023-01-25T09:25:08;102569.37;;;-0.19;91.68
35577;BME280;21680;52.400;16.920;2023-01-25T09:27:33;102568.07;;;-0.17;91.64
35577;BME280;21680;52.400;16.920;2023-01-25T09:29:58;102564.69;;;-0.13;91.77
35577;BME280;21680;52.400;16.920;2023-01-25T09:32:24;102560.13;;;-0.12;91.82
35577;BME280;21680;52.400;16.920;2023-01-25T09:34:49;102564.92;;;-0.10;91.68
35577;BME280;21680;52.400;16.920;2023-01-25T09:37:14;102561.31;;;-0.08;91.81
35577;BME280;21680;52.400;16.920;2023-01-25T09:39:39;102560.15;;;-0.06;91.85
35577;BME280;21680;52.400;16.920;2023-01-25T09:45:30;102555.10;;;-0.04;91.77
35577;BME280;21680;52.400;16.920;2023-01-25T09:48:38;102551.34;;;-0.06;91.66
35577;BME280;21680;52.400;16.920;2023-01-25T09:51:17;102550.61;;;-0.08;91.86
35577;BME280;21680;52.400;16.920;2023-01-25T09:53:52;102544.27;;;-0.08;91.71
35577;BME280;21680;52.400;16.920;2023-01-25T09:56:29;102540.86;;;-0.05;91.72
35577;BME280;21680;52.400;16.920;2023-01-25T09:58:59;102541.77;;;-0.03;91.74
35577;BME280;21680;52.400;16.920;2023-01-25T10:01:43;102536.45;;;-0.05;91.68
35577;BME280;21680;52.400;16.920;2023-01-25T10:04:17;102538.02;;;-0.05;91.65
35577;BME280;21680;52.400;16.920;2023-01-25T10:06:47;102528.63;;;-0.08;91.67
35577;BME280;21680;52.400;16.920;2023-01-25T10:09:23;102526.06;;;-0.05;91.86
35577;BME280;21680;52.400;16.920;2023-01-25T10:11:51;102528.02;;;-0.04;91.78
35577;BME280;21680;52.400;16.920;2023-01-25T10:14:18;102528.38;;;-0.04;91.81
35577;BME280;21680;52.400;16.920;2023-01-25T10:22:16;102515.92;;;-0.10;91.67
35577;BME280;21680;52.400;16.920;2023-01-25T10:25:14;102516.19;;;-0.07;91.98
35577;BME280;21680;52.400;16.920;2023-01-25T10:28:01;102514.03;;;-0.02;91.92
35577;BME280;21680;52.400;16.920;2023-01-25T10:30:35;102512.17;;;0.01;91.92
35577;BME280;21680;52.400;16.920;2023-01-25T10:33:14;102509.40;;;0.03;91.93
35577;BME280;21680;52.400;16.920;2023-01-25T10:35:43;102505.30;;;0.00;91.78
35577;BME280;21680;52.400;16.920;2023-01-25T10:38:23;102500.91;;;-0.00;91.88
35577;BME280;21680;52.400;16.920;2023-01-25T10:40:53;102497.81;;;0.03;91.96
35577;BME280;21680;52.400;16.920;2023-01-25T10:43:21;102494.68;;;0.04;91.81
35577;BME280;21680;52.400;16.920;2023-01-25T10:45:48;102495.70;;;0.09;92.00
35577;BME280;21680;52.400;16.920;2023-01-25T10:48:20;102491.67;;;0.09;91.93
35577;BME280;21680;52.400;16.920;2023-01-25T10:50:56;102487.45;;;0.09;91.92
35577;BME280;21680;52.400;16.920;2023-01-25T10:53:30;102486.17;;;0.14;91.89
35577;BME280;21680;52.400;16.920;2023-01-25T10:56:22;102483.64;;;0.11;91.69
35577;BME280;21680;52.400;16.920;2023-01-25T10:58:51;102478.19;;;0.11;91.85
35577;BME280;21680;52.400;16.920;2023-01-25T11:01:30;102473.39;;;0.15;91.96
35577;BME280;21680;52.400;16.920;2023-01-25T11:03:57;102466.14;;;0.20;92.05
35577;BME280;21680;52.400;16.920;2023-01-25T11:06:33;102462.02;;;0.23;91.92
35577;BME280;21680;52.400;16.920;2023-01-25T11:11:55;102450.27;;;0.25;91.85
35577;BME280;21680;52.400;16.920;2023-01-25T11:14:23;102450.61;;;0.24;91.88
35577;BME280;21680;52.400;16.920;2023-01-25T11:16:51;102438.89;;;0.26;92.05
35577;BME280;21680;52.400;16.920;2023-01-25T11:19:38;102433.05;;;0.32;92.08
35577;BME280;21680;52.400;16.920;2023-01-25T11:22:19;102428.72;;;0.33;91.96
35577;BME280;21680;52.400;16.920;2023-01-25T11:24:45;102425.88;;;0.32;91.80
35577;BME280;21680;52.400;16.920;2023-01-25T11:27:23;102419.32;;;0.30;91.92
35577;BME280;21680;52.400;16.920;2023-01-25T11:32:30;102408.90;;;0.29;91.80
35577;BME280;21680;52.400;16.920;2023-01-25T11:34:56;102408.64;;;0.32;91.85
35577;BME280;21680;52.400;16.920;2023-01-25T11:48:31;102394.89;;;0.31;91.82
35577;BME280;21680;52.400;16.920;2023-01-25T12:04:58;102357.98;;;0.25;91.81
35577;BME280;21680;52.400;16.920;2023-01-25T12:07:47;102356.07;;;0.25;91.86
35577;BME280;21680;52.400;16.920;2023-01-25T12:13:15;102344.42;;;0.24;91.62
35577;BME280;21680;52.400;16.920;2023-01-25T12:16:12;102339.63;;;0.22;91.58
35577;BME280;21680;52.400;16.920;2023-01-25T12:18:48;102336.43;;;0.21;91.61
35577;BME280;21680;52.400;16.920;2023-01-25T12:22:12;102330.77;;;0.19;91.65
35577;BME280;21680;52.400;16.920;2023-01-25T12:24:58;102325.66;;;0.19;91.70
35577;BME280;21680;52.400;16.920;2023-01-25T12:27:42;102321.77;;;0.18;91.71
35577;BME280;21680;52.400;16.920;2023-01-25T12:30:16;102310.75;;;0.20;91.74
35577;BME280;21680;52.400;16.920;2023-01-25T12:33:29;102307.12;;;0.23;91.71
35577;BME280;21680;52.400;16.920;2023-01-25T12:35:39;102299.30;;;0.20;91.52
35577;BME280;21680;52.400;16.920;2023-01-25T12:38:18;102295.80;;;0.21;91.52
35577;BME280;21680;52.400;16.920;2023-01-25T12:40:52;102291.23;;;0.20;91.68
35577;BME280;21680;52.400;16.920;2023-01-25T12:43:20;102286.02;;;0.22;91.72
35577;BME280;21680;52.400;16.920;2023-01-25T12:45:49;102280.41;;;0.23;91.75
35577;BME280;21680;52.400;16.920;2023-01-25T12:48:20;102280.77;;;0.23;91.57
35577;BME280;21680;52.400;16.920;2023-01-25T12:50:57;102274.59;;;0.22;91.73
35577;BME280;21680;52.400;16.920;2023-01-25T12:53:26;102270.35;;;0.22;91.61
35577;BME280;21680;52.400;16.920;2023-01-25T12:55:54;102263.77;;;0.19;91.67
35577;BME280;21680;52.400;16.920;2023-01-25T12:58:37;102260.07;;;0.18;91.56
35577;BME280;21680;52.400;16.920;2023-01-25T13:01:39;102255.02;;;0.20;91.67
35577;BME280;21680;52.400;16.920;2023-01-25T13:07:02;102247.64;;;0.21;91.54
35577;BME280;21680;52.400;16.920;2023-01-25T13:12:04;102240.38;;;0.18;91.67
35577;BME280;21680;52.400;16.920;2023-01-25T13:14:37;102243.21;;;0.19;91.64
35577;BME280;21680;52.400;16.920;2023-01-25T13:17:23;102238.65;;;0.19;91.81
35577;BME280;21680;52.400;16.920;2023-01-25T13:19:53;102239.05;;;0.21;91.58
35577;BME280;21680;52.400;16.920;2023-01-25T13:25:20;102229.91;;;0.21;91.69
35577;BME280;21680;52.400;16.920;2023-01-25T13:27:46;102224.83;;;0.22;91.67
35577;BME280;21680;52.400;16.920;2023-01-25T13:35:37;102213.02;;;0.21;91.61
35577;BME280;21680;52.400;16.920;2023-01-25T13:38:50;102209.14;;;0.20;91.57
35577;BME280;21680;52.400;16.920;2023-01-25T13:43:38;102204.27;;;0.22;91.75
35577;BME280;21680;52.400;16.920;2023-01-25T13:46:05;102199.67;;;0.21;91.54
35577;BME280;21680;52.400;16.920;2023-01-25T13:48:34;102188.08;;;0.21;91.83
35577;BME280;21680;52.400;16.920;2023-01-25T13:51:04;102183.17;;;0.22;91.91
35577;BME280;21680;52.400;16.920;2023-01-25T13:53:32;102183.42;;;0.25;91.84
35577;BME280;21680;52.400;16.920;2023-01-25T13:56:00;102187.53;;;0.28;91.73
35577;BME280;21680;52.400;16.920;2023-01-25T13:58:29;102185.31;;;0.31;91.89